sensor_id;sensor_type;location;lat;lon;timestamp;pressure;altitude;pressure_sealevel;temperature
21336;BMP180;69435;52.670;13.544;2023-06-24T00:00:04;101502.00;;;20.90
21336;BMP180;69435;52.670;13.544;2023-06-24T00:02:52;101523.00;;;20.90
21336;BMP180;69435;52.670;13.544;2023-06-24T00:05:19;101524.00;;;20.90
21336;BMP180;69435;52.670;13.544;2023-06-24T00:07:45;101510.00;;;20.90
21336;BMP180;69435;52.670;13.544;2023-06-24T00:10:13;101522.00;;;20.90
21336;BMP180;69435;52.670;13.544;2023-06-24T00:12:58;101507.00;;;20.90
21336;BMP180;69435;52.670;13.544;2023-06-24T00:15:27;101521.00;;;20.80
21336;BMP180;69435;52.670;13.544;2023-06-24T00:17:53;101509.00;;;20.80
21336;BMP180;69435;52.670;13.544;2023-06-24T00:20:18;101522.00;;;20.80
21336;BMP180;69435;52.670;13.544;2023-06-24T00:22:57;101530.00;;;20.80
21336;BMP180;69435;52.670;13.544;2023-06-24T00:25:22;101536.00;;;20.80
21336;BMP180;69435;52.670;13.544;2023-06-24T00:28:00;101534.00;;;20.70
21336;BMP180;69435;52.670;13.544;2023-06-24T00:30:26;101491.00;;;20.70
21336;BMP180;69435;52.670;13.544;2023-06-24T00:32:55;101520.00;;;20.70
21336;BMP180;69435;52.670;13.544;2023-06-24T00:35:21;101499.00;;;20.60
21336;BMP180;69435;52.670;13.544;2023-06-24T00:37:47;101511.00;;;20.60
21336;BMP180;69435;52.670;13.544;2023-06-24T00:40:13;101533.00;;;20.50
21336;BMP180;69435;52.670;13.544;2023-06-24T00:42:45;101531.00;;;20.50
21336;BMP180;69435;52.670;13.544;2023-06-24T00:45:20;101523.00;;;20.40
21336;BMP180;69435;52.670;13.544;2023-06-24T00:47:47;101544.00;;;20.30
21336;BMP180;69435;52.670;13.544;2023-06-24T00:50:15;101553.00;;;20.30
21336;BMP180;69435;52.670;13.544;2023-06-24T00:52:41;101518.00;;;20.20
21336;BMP180;69435;52.670;13.544;2023-06-24T00:55:23;101516.00;;;20.20
21336;BMP180;69435;52.670;13.544;2023-06-24T00:57:52;101525.00;;;20.10
21336;BMP180;69435;52.670;13.544;2023-06-24T01:00:22;101511.00;;;20.10
21336;BMP180;69435;52.670;13.544;2023-06-24T01:02:51;101500.00;;;20.00
21336;BMP180;69435;52.670;13.544;2023-06-24T01:05:23;101518.00;;;20.00
21336;BMP180;69435;52.670;13.544;2023-06-24T01:07:51;101558.00;;;19.90
21336;BMP180;69435;52.670;13.544;2023-06-24T01:10:24;101543.00;;;19.90
21336;BMP180;69435;52.670;13.544;2023-06-24T01:12:50;101497.00;;;19.80
21336;BMP180;69435;52.670;13.544;2023-06-24T01:15:28;101550.00;;;19.80
21336;BMP180;69435;52.670;13.544;2023-06-24T01:18:22;101518.00;;;19.80
21336;BMP180;69435;52.670;13.544;2023-06-24T01:21:16;101531.00;;;19.80
21336;BMP180;69435;52.670;13.544;2023-06-24T01:33:04;101505.00;;;19.50
21336;BMP180;69435;52.670;13.544;2023-06-24T01:35:33;101558.00;;;19.50
21336;BMP180;69435;52.670;13.544;2023-06-24T01:38:10;101554.00;;;19.50
21336;BMP180;69435;52.670;13.544;2023-06-24T01:40:43;101516.00;;;19.50
21336;BMP180;69435;52.670;13.544;2023-06-24T01:43:11;101518.00;;;19.40
21336;BMP180;69435;52.670;13.544;2023-06-24T01:45:50;101537.00;;;19.40
21336;BMP180;69435;52.670;13.544;2023-06-24T01:48:28;101539.00;;;19.40
21336;BMP180;69435;52.670;13.544;2023-06-24T01:51:15;101512.00;;;19.40
21336;BMP180;69435;52.670;13.544;2023-06-24T01:53:48;101529.00;;;19.30
21336;BMP180;69435;52.670;13.544;2023-06-24T01:56:16;101540.00;;;19.30
21336;BMP180;69435;52.670;13.544;2023-06-24T01:58:45;101525.00;;;19.20
21336;BMP180;69435;52.670;13.544;2023-06-24T02:01:15;101507.00;;;19.20
21336;BMP180;69435;52.670;13.544;2023-06-24T02:03:42;101524.00;;;19.20
21336;BMP180;69435;52.670;13.544;2023-06-24T02:06:09;101509.00;;;19.20
21336;BMP180;69435;52.670;13.544;2023-06-24T02:08:39;101516.00;;;19.20
21336;BMP180;69435;52.670;13.544;2023-06-24T02:11:13;101470.00;;;19.10
21336;BMP180;69435;52.670;13.544;2023-06-24T02:13:42;101509.00;;;19.10
21336;BMP180;69435;52.670;13.544;2023-06-24T02:16:10;101504.00;;;19.10
21336;BMP180;69435;52.670;13.544;2023-06-24T02:18:56;101505.00;;;19.10
21336;BMP180;69435;52.670;13.544;2023-06-24T02:21:24;101506.00;;;19.10
21336;BMP180;69435;52.670;13.544;2023-06-24T02:24:01;101515.00;;;19.00
21336;BMP180;69435;52.670;13.544;2023-06-24T02:26:28;101524.00;;;19.00
21336;BMP180;69435;52.670;13.544;2023-06-24T02:28:55;101510.00;;;19.00
21336;BMP180;69435;52.670;13.544;2023-06-24T02:31:21;101516.00;;;19.10
21336;BMP180;69435;52.670;13.544;2023-06-24T02:33:47;101515.00;;;19.10
21336;BMP180;69435;52.670;13.544;2023-06-24T02:36:13;101510.00;;;19.20
21336;BMP180;69435;52.670;13.544;2023-06-24T02:38:39;101521.00;;;19.20
21336;BMP180;69435;52.670;13.544;2023-06-24T02:41:05;101458.00;;;19.20
21336;BMP180;69435;52.670;13.544;2023-06-24T02:43:32;101367.00;;;19.30
21336;BMP180;69435;52.670;13.544;2023-06-24T02:46:08;101552.00;;;19.30
21336;BMP180;69435;52.670;13.544;2023-06-24T02:48:38;101539.00;;;19.40
21336;BMP180;69435;52.670;13.544;2023-06-24T02:51:07;101522.00;;;19.40
21336;BMP180;69435;52.670;13.544;2023-06-24T02:53:45;101535.00;;;19.30
21336;BMP180;69435;52.670;13.544;2023-06-24T02:56:13;101520.00;;;19.30
21336;BMP180;69435;52.670;13.544;2023-06-24T02:58:40;101515.00;;;19.30
21336;BMP180;69435;52.670;13.544;2023-06-24T03:01:12;101531.00;;;19.40
21336;BMP180;69435;52.670;13.544;2023-06-24T03:03:42;101499.00;;;19.30
21336;BMP180;69435;52.670;13.544;2023-06-24T03:06:08;101537.00;;;19.40
21336;BMP180;69435;52.670;13.544;2023-06-24T03:08:41;101534.00;;;19.30
21336;BMP180;69435;52.670;13.544;2023-06-24T03:11:13;101544.00;;;19.30
21336;BMP180;69435;52.670;13.544;2023-06-24T03:13:40;101568.00;;;19.30
21336;BMP180;69435;52.670;13.544;2023-06-24T03:16:12;101544.00;;;19.40
21336;BMP180;69435;52.670;13.544;2023-06-24T03:18:43;101544.00;;;19.40
21336;BMP180;69435;52.670;13.544;2023-06-24T03:21:10;101583.00;;;19.40
21336;BMP180;69435;52.670;13.544;2023-06-24T03:23:38;101559.00;;;19.40
21336;BMP180;69435;52.670;13.544;2023-06-24T03:26:08;101556.00;;;19.40
21336;BMP180;69435;52.670;13.544;2023-06-24T03:28:36;101561.00;;;19.50
21336;BMP180;69435;52.670;13.544;2023-06-24T03:31:06;101587.00;;;19.50
21336;BMP180;69435;52.670;13.544;2023-06-24T03:33:44;101532.00;;;19.50
21336;BMP180;69435;52.670;13.544;2023-06-24T03:36:11;101585.00;;;19.50
21336;BMP180;69435;52.670;13.544;2023-06-24T03:38:37;101566.00;;;19.60
21336;BMP180;69435;52.670;13.544;2023-06-24T03:41:08;101571.00;;;19.60
21336;BMP180;69435;52.670;13.544;2023-06-24T03:43:34;101526.00;;;19.60
21336;BMP180;69435;52.670;13.544;2023-06-24T03:46:18;101577.00;;;19.60
21336;BMP180;69435;52.670;13.544;2023-06-24T03:48:43;101578.00;;;19.60
21336;BMP180;69435;52.670;13.544;2023-06-24T03:51:09;101537.00;;;19.60
21336;BMP180;69435;52.670;13.544;2023-06-24T03:53:35;101564.00;;;19.60
21336;BMP180;69435;52.670;13.544;2023-06-24T03:56:00;101600.00;;;19.60
21336;BMP180;69435;52.670;13.544;2023-06-24T03:58:26;101560.00;;;19.60
21336;BMP180;69435;52.670;13.544;2023-06-24T04:01:11;101576.00;;;19.60
21336;BMP180;69435;52.670;13.544;2023-06-24T04:03:36;101571.00;;;19.60
21336;BMP180;69435;52.670;13.544;2023-06-24T04:06:20;101593.00;;;19.50
21336;BMP180;69435;52.670;13.544;2023-06-24T04:08:46;101599.00;;;19.50
21336;BMP180;69435;52.670;13.544;2023-06-24T04:11:14;101581.00;;;19.50
21336;BMP180;69435;52.670;13.544;2023-06-24T04:13:43;101600.00;;;19.50
21336;BMP180;69435;52.670;13.544;2023-06-24T04:16:17;101601.00;;;19.50
21336;BMP180;69435;52.670;13.544;2023-06-24T04:18:43;101596.00;;;19.50
21336;BMP180;69435;52.670;13.544;2023-06-24T04:21:09;101574.00;;;19.60
21336;BMP180;69435;52.670;13.544;2023-06-24T04:23:41;101581.00;;;19.60
21336;BMP180;69435;52.670;13.544;2023-06-24T04:26:12;101581.00;;;19.60
21336;BMP180;69435;52.670;13.544;2023-06-24T04:28:38;101575.00;;;19.70
21336;BMP180;69435;52.670;13.544;2023-06-24T04:31:05;101583.00;;;19.70
21336;BMP180;69435;52.670;13.544;2023-06-24T04:33:31;101587.00;;;19.80
21336;BMP180;69435;52.670;13.544;2023-06-24T04:35:59;101594.00;;;19.70
21336;BMP180;69435;52.670;13.544;2023-06-24T04:38:34;101569.00;;;19.80
21336;BMP180;69435;52.670;13.544;2023-06-24T04:41:00;101603.00;;;19.70
21336;BMP180;69435;52.670;13.544;2023-06-24T04:43:26;101594.00;;;19.70
21336;BMP180;69435;52.670;13.544;2023-06-24T04:45:55;101609.00;;;19.70
21336;BMP180;69435;52.670;13.544;2023-06-24T04:48:33;101600.00;;;19.70
21336;BMP180;69435;52.670;13.544;2023-06-24T04:50:59;101588.00;;;19.70
21336;BMP180;69435;52.670;13.544;2023-06-24T04:53:24;101574.00;;;19.70
21336;BMP180;69435;52.670;13.544;2023-06-24T04:55:50;101603.00;;;19.70
21336;BMP180;69435;52.670;13.544;2023-06-24T04:58:31;101617.00;;;19.70
21336;BMP180;69435;52.670;13.544;2023-06-24T05:00:56;101642.00;;;19.70
21336;BMP180;69435;52.670;13.544;2023-06-24T05:03:31;101622.00;;;19.70
21336;BMP180;69435;52.670;13.544;2023-06-24T05:05:57;101565.00;;;19.70
21336;BMP180;69435;52.670;13.544;2023-06-24T05:08:23;101571.00;;;19.80
21336;BMP180;69435;52.670;13.544;2023-06-24T05:10:49;101612.00;;;19.80
21336;BMP180;69435;52.670;13.544;2023-06-24T05:13:14;101619.00;;;19.90
21336;BMP180;69435;52.670;13.544;2023-06-24T05:15:40;101584.00;;;19.90
21336;BMP180;69435;52.670;13.544;2023-06-24T05:18:06;101620.00;;;20.00
21336;BMP180;69435;52.670;13.544;2023-06-24T05:20:32;101606.00;;;20.00
21336;BMP180;69435;52.670;13.544;2023-06-24T05:22:57;101601.00;;;20.10
21336;BMP180;69435;52.670;13.544;2023-06-24T05:25:23;101627.00;;;20.20
21336;BMP180;69435;52.670;13.544;2023-06-24T05:28:04;101637.00;;;20.20
21336;BMP180;69435;52.670;13.544;2023-06-24T05:30:33;101634.00;;;20.30
21336;BMP180;69435;52.670;13.544;2023-06-24T05:32:58;101608.00;;;20.30
21336;BMP180;69435;52.670;13.544;2023-06-24T05:35:24;101598.00;;;20.30
21336;BMP180;69435;52.670;13.544;2023-06-24T05:37:59;101628.00;;;20.40
21336;BMP180;69435;52.670;13.544;2023-06-24T05:40:34;101608.00;;;20.50
21336;BMP180;69435;52.670;13.544;2023-06-24T05:43:00;101617.00;;;20.50
21336;BMP180;69435;52.670;13.544;2023-06-24T05:45:29;101622.00;;;20.60
21336;BMP180;69435;52.670;13.544;2023-06-24T05:47:55;101627.00;;;20.60
21336;BMP180;69435;52.670;13.544;2023-06-24T05:50:32;101637.00;;;20.70
21336;BMP180;69435;52.670;13.544;2023-06-24T05:53:13;101625.00;;;20.80
21336;BMP180;69435;52.670;13.544;2023-06-24T05:55:41;101621.00;;;20.90
21336;BMP180;69435;52.670;13.544;2023-06-24T05:58:07;101656.00;;;21.10
21336;BMP180;69435;52.670;13.544;2023-06-24T06:00:33;101655.00;;;21.30
21336;BMP180;69435;52.670;13.544;2023-06-24T06:03:02;101657.00;;;21.50
21336;BMP180;69435;52.670;13.544;2023-06-24T06:05:31;101638.00;;;21.50
21336;BMP180;69435;52.670;13.544;2023-06-24T06:07:56;101654.00;;;21.80
21336;BMP180;69435;52.670;13.544;2023-06-24T06:10:31;101641.00;;;21.90
21336;BMP180;69435;52.670;13.544;2023-06-24T06:12:57;101634.00;;;22.00
21336;BMP180;69435;52.670;13.544;2023-06-24T06:15:22;101637.00;;;22.10
21336;BMP180;69435;52.670;13.544;2023-06-24T06:17:54;101634.00;;;22.10
21336;BMP180;69435;52.670;13.544;2023-06-24T06:20:34;101650.00;;;22.00
21336;BMP180;69435;52.670;13.544;2023-06-24T06:23:19;101643.00;;;22.10
21336;BMP180;69435;52.670;13.544;2023-06-24T06:25:44;101661.00;;;22.10
21336;BMP180;69435;52.670;13.544;2023-06-24T06:28:10;101626.00;;;22.20
21336;BMP180;69435;52.670;13.544;2023-06-24T06:30:42;101625.00;;;22.20
21336;BMP180;69435;52.670;13.544;2023-06-24T06:33:10;101634.00;;;22.20
21336;BMP180;69435;52.670;13.544;2023-06-24T06:35:36;101659.00;;;22.30
21336;BMP180;69435;52.670;13.544;2023-06-24T06:38:05;101654.00;;;22.40
21336;BMP180;69435;52.670;13.544;2023-06-24T06:40:40;101638.00;;;22.40
21336;BMP180;69435;52.670;13.544;2023-06-24T06:43:06;101667.00;;;22.50
21336;BMP180;69435;52.670;13.544;2023-06-24T06:45:32;101687.00;;;22.50
21336;BMP180;69435;52.670;13.544;2023-06-24T06:48:02;101662.00;;;22.60
21336;BMP180;69435;52.670;13.544;2023-06-24T06:50:28;101631.00;;;22.70
21336;BMP180;69435;52.670;13.544;2023-06-24T06:52:53;101624.00;;;22.70
21336;BMP180;69435;52.670;13.544;2023-06-24T06:55:19;101628.00;;;22.80
21336;BMP180;69435;52.670;13.544;2023-06-24T06:57:54;101599.00;;;23.00
21336;BMP180;69435;52.670;13.544;2023-06-24T07:00:20;101618.00;;;23.20
21336;BMP180;69435;52.670;13.544;2023-06-24T07:02:49;101586.00;;;23.40
21336;BMP180;69435;52.670;13.544;2023-06-24T07:05:30;101637.00;;;23.70
21336;BMP180;69435;52.670;13.544;2023-06-24T07:07:59;101628.00;;;24.20
21336;BMP180;69435;52.670;13.544;2023-06-24T07:10:24;101607.00;;;24.80
21336;BMP180;69435;52.670;13.544;2023-06-24T07:12:50;101635.00;;;25.40
21336;BMP180;69435;52.670;13.544;2023-06-24T07:15:19;101628.00;;;25.80
21336;BMP180;69435;52.670;13.544;2023-06-24T07:17:48;101622.00;;;26.00
21336;BMP180;69435;52.670;13.544;2023-06-24T07:20:21;101652.00;;;26.30
21336;BMP180;69435;52.670;13.544;2023-06-24T07:22:47;101606.00;;;27.00
21336;BMP180;69435;52.670;13.544;2023-06-24T07:25:13;101631.00;;;27.90
21336;BMP180;69435;52.670;13.544;2023-06-24T07:27:41;101652.00;;;28.90
21336;BMP180;69435;52.670;13.544;2023-06-24T07:30:16;101649.00;;;29.90
21336;BMP180;69435;52.670;13.544;2023-06-24T07:32:41;101661.00;;;30.80
21336;BMP180;69435;52.670;13.544;2023-06-24T07:35:19;101643.00;;;31.70
21336;BMP180;69435;52.670;13.544;2023-06-24T07:37:48;101648.00;;;32.60
21336;BMP180;69435;52.670;13.544;2023-06-24T07:40:20;101658.00;;;33.50
21336;BMP180;69435;52.670;13.544;2023-06-24T07:42:46;101642.00;;;34.00
21336;BMP180;69435;52.670;13.544;2023-06-24T07:45:11;101628.00;;;34.10
21336;BMP180;69435;52.670;13.544;2023-06-24T07:47:37;101665.00;;;33.90
21336;BMP180;69435;52.670;13.544;2023-06-24T07:50:03;101669.00;;;33.40
21336;BMP180;69435;52.670;13.544;2023-06-24T07:52:38;101682.00;;;33.00
21336;BMP180;69435;52.670;13.544;2023-06-24T07:55:04;101682.00;;;33.00
21336;BMP180;69435;52.670;13.544;2023-06-24T07:57:39;101641.00;;;32.80
21336;BMP180;69435;52.670;13.544;2023-06-24T08:00:07;101654.00;;;32.60
21336;BMP180;69435;52.670;13.544;2023-06-24T08:02:38;101691.00;;;32.50
21336;BMP180;69435;52.670;13.544;2023-06-24T08:05:04;101682.00;;;32.60
21336;BMP180;69435;52.670;13.544;2023-06-24T08:07:32;101683.00;;;32.70
21336;BMP180;69435;52.670;13.544;2023-06-24T08:10:01;101703.00;;;32.60
21336;BMP180;69435;52.670;13.544;2023-06-24T08:12:36;101678.00;;;32.80
21336;BMP180;69435;52.670;13.544;2023-06-24T08:15:08;101685.00;;;32.90
21336;BMP180;69435;52.670;13.544;2023-06-24T08:17:53;101690.00;;;32.90
21336;BMP180;69435;52.670;13.544;2023-06-24T08:20:28;101671.00;;;33.00
21336;BMP180;69435;52.670;13.544;2023-06-24T08:22:54;101691.00;;;33.00
21336;BMP180;69435;52.670;13.544;2023-06-24T08:25:19;101667.00;;;33.20
21336;BMP180;69435;52.670;13.544;2023-06-24T08:27:54;101683.00;;;33.70
21336;BMP180;69435;52.670;13.544;2023-06-24T08:30:20;101741.00;;;34.20
21336;BMP180;69435;52.670;13.544;2023-06-24T08:33:01;101691.00;;;34.70
21336;BMP180;69435;52.670;13.544;2023-06-24T08:35:26;101690.00;;;34.80
21336;BMP180;69435;52.670;13.544;2023-06-24T08:37:55;101688.00;;;34.70
21336;BMP180;69435;52.670;13.544;2023-06-24T08:40:23;101653.00;;;34.50
21336;BMP180;69435;52.670;13.544;2023-06-24T08:42:49;101705.00;;;34.40
21336;BMP180;69435;52.670;13.544;2023-06-24T08:45:15;101697.00;;;34.20
21336;BMP180;69435;52.670;13.544;2023-06-24T08:47:41;101703.00;;;34.10
21336;BMP180;69435;52.670;13.544;2023-06-24T08:50:13;101690.00;;;34.10
21336;BMP180;69435;52.670;13.544;2023-06-24T08:52:45;101721.00;;;34.30
21336;BMP180;69435;52.670;13.544;2023-06-24T08:55:17;101694.00;;;34.60
21336;BMP180;69435;52.670;13.544;2023-06-24T08:57:43;101717.00;;;34.70
21336;BMP180;69435;52.670;13.544;2023-06-24T09:00:09;101699.00;;;34.90
21336;BMP180;69435;52.670;13.544;2023-06-24T09:02:37;101704.00;;;35.20
21336;BMP180;69435;52.670;13.544;2023-06-24T09:05:07;101713.00;;;35.70
21336;BMP180;69435;52.670;13.544;2023-06-24T09:07:33;101698.00;;;36.10
21336;BMP180;69435;52.670;13.544;2023-06-24T09:09:59;101704.00;;;36.00
21336;BMP180;69435;52.670;13.544;2023-06-24T09:12:32;101706.00;;;35.50
21336;BMP180;69435;52.670;13.544;2023-06-24T09:15:03;101696.00;;;35.10
21336;BMP180;69435;52.670;13.544;2023-06-24T09:17:44;101701.00;;;34.80
21336;BMP180;69435;52.670;13.544;2023-06-24T09:20:10;101695.00;;;34.40
21336;BMP180;69435;52.670;13.544;2023-06-24T09:22:42;101722.00;;;34.40
21336;BMP180;69435;52.670;13.544;2023-06-24T09:25:17;101717.00;;;34.30
21336;BMP180;69435;52.670;13.544;2023-06-24T09:27:48;101714.00;;;34.10
21336;BMP180;69435;52.670;13.544;2023-06-24T09:30:36;101712.00;;;33.60
21336;BMP180;69435;52.670;13.544;2023-06-24T09:33:02;101722.00;;;33.40
21336;BMP180;69435;52.670;13.544;2023-06-24T09:35:34;101731.00;;;33.60
21336;BMP180;69435;52.670;13.544;2023-06-24T09:38:00;101700.00;;;34.00
21336;BMP180;69435;52.670;13.544;2023-06-24T09:40:29;101699.00;;;34.50
21336;BMP180;69435;52.670;13.544;2023-06-24T09:42:58;101705.00;;;34.70
21336;BMP180;69435;52.670;13.544;2023-06-24T09:45:29;101699.00;;;34.90
21336;BMP180;69435;52.670;13.544;2023-06-24T09:47:58;101711.00;;;35.10
21336;BMP180;69435;52.670;13.544;2023-06-24T09:50:24;101702.00;;;35.30
21336;BMP180;69435;52.670;13.544;2023-06-24T09:52:51;101710.00;;;35.60
21336;BMP180;69435;52.670;13.544;2023-06-24T09:55:18;101704.00;;;35.90
21336;BMP180;69435;52.670;13.544;2023-06-24T09:57:51;101722.00;;;36.10
21336;BMP180;69435;52.670;13.544;2023-06-24T10:00:20;101669.00;;;36.50
21336;BMP180;69435;52.670;13.544;2023-06-24T10:02:53;101708.00;;;37.10
21336;BMP180;69435;52.670;13.544;2023-06-24T10:05:19;101713.00;;;37.60
21336;BMP180;69435;52.670;13.544;2023-06-24T10:07:48;101709.00;;;38.10
21336;BMP180;69435;52.670;13.544;2023-06-24T10:10:14;101700.00;;;38.60
21336;BMP180;69435;52.670;13.544;2023-06-24T10:12:43;101699.00;;;38.90
21336;BMP180;69435;52.670;13.544;2023-06-24T10:15:24;101700.00;;;39.20
21336;BMP180;69435;52.670;13.544;2023-06-24T10:17:53;101696.00;;;39.50
21336;BMP180;69435;52.670;13.544;2023-06-24T10:20:25;101690.00;;;39.60
21336;BMP180;69435;52.670;13.544;2023-06-24T10:22:57;101675.00;;;39.60
21336;BMP180;69435;52.670;13.544;2023-06-24T10:25:35;101651.00;;;39.80
21336;BMP180;69435;52.670;13.544;2023-06-24T10:28:01;101694.00;;;39.80
21336;BMP180;69435;52.670;13.544;2023-06-24T10:30:29;101686.00;;;39.90
21336;BMP180;69435;52.670;13.544;2023-06-24T10:33:00;101681.00;;;40.20
21336;BMP180;69435;52.670;13.544;2023-06-24T10:35:28;101687.00;;;40.30
21336;BMP180;69435;52.670;13.544;2023-06-24T10:38:00;101681.00;;;40.20
21336;BMP180;69435;52.670;13.544;2023-06-24T10:40:37;101703.00;;;40.10
21336;BMP180;69435;52.670;13.544;2023-06-24T10:45:57;101687.00;;;39.70
21336;BMP180;69435;52.670;13.544;2023-06-24T10:48:23;101682.00;;;39.20
21336;BMP180;69435;52.670;13.544;2023-06-24T10:50:52;101688.00;;;38.90
21336;BMP180;69435;52.670;13.544;2023-06-24T10:53:22;101682.00;;;38.70
21336;BMP180;69435;52.670;13.544;2023-06-24T10:56:01;101677.00;;;38.70
21336;BMP180;69435;52.670;13.544;2023-06-24T10:58:27;101670.00;;;38.80
21336;BMP180;69435;52.670;13.544;2023-06-24T11:00:53;101674.00;;;38.90
21336;BMP180;69435;52.670;13.544;2023-06-24T11:03:18;101665.00;;;38.90
21336;BMP180;69435;52.670;13.544;2023-06-24T11:05:46;101678.00;;;39.00
21336;BMP180;69435;52.670;13.544;2023-06-24T11:08:13;101666.00;;;39.00
21336;BMP180;69435;52.670;13.544;2023-06-24T11:10:48;101672.00;;;39.10
21336;BMP180;69435;52.670;13.544;2023-06-24T11:13:15;101681.00;;;38.90
21336;BMP180;69435;52.670;13.544;2023-06-24T11:15:41;101683.00;;;39.00
21336;BMP180;69435;52.670;13.544;2023-06-24T11:18:11;101696.00;;;39.00
21336;BMP180;69435;52.670;13.544;2023-06-24T11:20:40;101694.00;;;38.60
21336;BMP180;69435;52.670;13.544;2023-06-24T11:23:10;101676.00;;;38.20
21336;BMP180;69435;52.670;13.544;2023-06-24T11:25:43;101670.00;;;37.80
21336;BMP180;69435;52.670;13.544;2023-06-24T11:28:21;101672.00;;;37.60
21336;BMP180;69435;52.670;13.544;2023-06-24T11:30:47;101676.00;;;37.50
21336;BMP180;69435;52.670;13.544;2023-06-24T11:33:28;101673.00;;;37.40
21336;BMP180;69435;52.670;13.544;2023-06-24T11:35:54;101692.00;;;37.30
21336;BMP180;69435;52.670;13.544;2023-06-24T11:38:20;101671.00;;;37.20
21336;BMP180;69435;52.670;13.544;2023-06-24T11:40:48;101664.00;;;37.10
21336;BMP180;69435;52.670;13.544;2023-06-24T11:43:13;101669.00;;;37.20
21336;BMP180;69435;52.670;13.544;2023-06-24T11:45:54;101680.00;;;37.20
21336;BMP180;69435;52.670;13.544;2023-06-24T11:48:20;101665.00;;;37.20
21336;BMP180;69435;52.670;13.544;2023-06-24T11:50:55;101661.00;;;37.20
21336;BMP180;69435;52.670;13.544;2023-06-24T11:53:40;101669.00;;;37.20
21336;BMP180;69435;52.670;13.544;2023-06-24T11:56:07;101675.00;;;37.00
21336;BMP180;69435;52.670;13.544;2023-06-24T11:58:35;101646.00;;;36.90
21336;BMP180;69435;52.670;13.544;2023-06-24T12:01:06;101673.00;;;36.40
21336;BMP180;69435;52.670;13.544;2023-06-24T12:03:32;101671.00;;;36.30
21336;BMP180;69435;52.670;13.544;2023-06-24T12:05:59;101674.00;;;36.20
21336;BMP180;69435;52.670;13.544;2023-06-24T12:08:28;101683.00;;;36.20
21336;BMP180;69435;52.670;13.544;2023-06-24T12:10:54;101667.00;;;36.20
21336;BMP180;69435;52.670;13.544;2023-06-24T12:13:22;101662.00;;;36.20
21336;BMP180;69435;52.670;13.544;2023-06-24T12:15:48;101663.00;;;36.20
21336;BMP180;69435;52.670;13.544;2023-06-24T12:18:14;101652.00;;;36.10
21336;BMP180;69435;52.670;13.544;2023-06-24T12:20:40;101643.00;;;36.10
21336;BMP180;69435;52.670;13.544;2023-06-24T12:23:07;101635.00;;;36.00
21336;BMP180;69435;52.670;13.544;2023-06-24T12:25:36;101644.00;;;36.10
21336;BMP180;69435;52.670;13.544;2023-06-24T12:28:01;101659.00;;;36.10
21336;BMP180;69435;52.670;13.544;2023-06-24T12:30:30;101654.00;;;36.00
21336;BMP180;69435;52.670;13.544;2023-06-24T12:33:01;101646.00;;;35.90
21336;BMP180;69435;52.670;13.544;2023-06-24T12:35:26;101637.00;;;35.70
21336;BMP180;69435;52.670;13.544;2023-06-24T12:37:55;101640.00;;;35.60
21336;BMP180;69435;52.670;13.544;2023-06-24T12:40:26;101641.00;;;35.40
21336;BMP180;69435;52.670;13.544;2023-06-24T12:42:52;101643.00;;;35.30
21336;BMP180;69435;52.670;13.544;2023-06-24T12:45:18;101651.00;;;35.30
21336;BMP180;69435;52.670;13.544;2023-06-24T12:48:02;101649.00;;;35.20
21336;BMP180;69435;52.670;13.544;2023-06-24T12:50:37;101638.00;;;35.10
21336;BMP180;69435;52.670;13.544;2023-06-24T12:53:03;101650.00;;;35.00
21336;BMP180;69435;52.670;13.544;2023-06-24T12:55:29;101651.00;;;34.90
21336;BMP180;69435;52.670;13.544;2023-06-24T12:57:55;101640.00;;;34.80
21336;BMP180;69435;52.670;13.544;2023-06-24T13:00:22;101623.00;;;34.80
21336;BMP180;69435;52.670;13.544;2023-06-24T13:02:49;101654.00;;;34.80
21336;BMP180;69435;52.670;13.544;2023-06-24T13:05:19;101645.00;;;34.70
21336;BMP180;69435;52.670;13.544;2023-06-24T13:07:44;101640.00;;;34.60
21336;BMP180;69435;52.670;13.544;2023-06-24T13:10:29;101648.00;;;34.60
21336;BMP180;69435;52.670;13.544;2023-06-24T13:12:55;101637.00;;;34.50
21336;BMP180;69435;52.670;13.544;2023-06-24T13:15:21;101652.00;;;34.40
21336;BMP180;69435;52.670;13.544;2023-06-24T13:17:47;101648.00;;;34.30
21336;BMP180;69435;52.670;13.544;2023-06-24T13:20:13;101632.00;;;34.20
21336;BMP180;69435;52.670;13.544;2023-06-24T13:22:38;101634.00;;;34.10
21336;BMP180;69435;52.670;13.544;2023-06-24T13:25:05;101635.00;;;34.00
21336;BMP180;69435;52.670;13.544;2023-06-24T13:27:31;101650.00;;;33.90
21336;BMP180;69435;52.670;13.544;2023-06-24T13:30:12;101639.00;;;33.80
21336;BMP180;69435;52.670;13.544;2023-06-24T13:32:40;101645.00;;;33.70
21336;BMP180;69435;52.670;13.544;2023-06-24T13:35:24;101648.00;;;33.60
21336;BMP180;69435;52.670;13.544;2023-06-24T13:37:56;101645.00;;;33.60
21336;BMP180;69435;52.670;13.544;2023-06-24T13:40:24;101645.00;;;33.60
21336;BMP180;69435;52.670;13.544;2023-06-24T13:42:50;101623.00;;;33.60
21336;BMP180;69435;52.670;13.544;2023-06-24T13:45:19;101621.00;;;33.60
21336;BMP180;69435;52.670;13.544;2023-06-24T13:47:44;101622.00;;;33.60
21336;BMP180;69435;52.670;13.544;2023-06-24T13:50:10;101628.00;;;33.60
21336;BMP180;69435;52.670;13.544;2023-06-24T13:52:39;101629.00;;;33.70
21336;BMP180;69435;52.670;13.544;2023-06-24T13:55:05;101641.00;;;33.70
21336;BMP180;69435;52.670;13.544;2023-06-24T13:57:31;101627.00;;;33.70
21336;BMP180;69435;52.670;13.544;2023-06-24T14:00:04;101593.00;;;33.60
21336;BMP180;69435;52.670;13.544;2023-06-24T14:02:30;101619.00;;;33.50
21336;BMP180;69435;52.670;13.544;2023-06-24T14:04:55;101614.00;;;33.50
21336;BMP180;69435;52.670;13.544;2023-06-24T14:07:24;101607.00;;;33.40
21336;BMP180;69435;52.670;13.544;2023-06-24T14:09:50;101615.00;;;33.30